Beauregard Regional Airport
KDRI : now visible

Airfield :











YOU CAN JOIN US ON...

 
LOGIN :

Register | Disclaimer

   EN    FR    IT 

 









Legend :    VFR   Marginal VFR   IFR   Intensive IFR   Very Intensive IFR
Visi :
Ceiling :
>= 8 km
>= 3000ft
5 to 8 km
1000 to 3000 ft
1500m to 5 km
500 to 1000 ft
800 to 1500m
200 to 500 ft
< 800m
< 200 ft
Symbols :   Thunderstorms  Fog  Heavy snow  Heavy precipitations  Wind > 20 kt






- Airport Elevation : 202 ft


KDRI - Beauregard Regional

CURRENT METAR :
  • 211415Z AUTO 04009KT 10SM FEW035 OVC055 13/11 A3019 RMK AO2 P0002 T01290113 TSNO $

EXPIRED METARs :
  • 211355Z AUTO 02011KT 10SM OVC055 13/11 A3018 RMK AO2 T01270113 TSNO $
  • 211335Z AUTO 03007KT 10SM FEW011 BKN045 OVC055 12/12 A3016 RMK AO2 P0003 T01210116 TSNO $
  • 211315Z AUTO 03010G18KT 10SM BKN010 BKN014 OVC043 12/12 A3015 RMK AO2 CIG 009V013 P0002 T01170117 TSNO $
  • 211235Z AUTO 03010G17KT 10SM OVC010 11/11 A3014 RMK AO2 CIG 008V013 P0005 T01130113 TSNO $
  • 211215Z AUTO 02009KT 10SM OVC009 11/11 A3014 RMK AO2 CIG 008V012 P0003 T01120112 TSNO $
  • 211155Z AUTO 02011KT 10SM OVC009 11/11 A3014 RMK AO2 CIG 008V012 P0001 T01110111 TSNO $
  • 211135Z AUTO 02009KT 350V150 10SM BKN012 OVC024 11/11 A3013 RMK AO2 CIG 009V015 P0005 T01120112 TSNO $
  • 211115Z AUTO 01006KT 10SM FEW013 OVC024 11/11 A3013 RMK AO2 P0003 T01120112 TSNO $
  • 211055Z AUTO 02005KT 10SM FEW011 OVC023 11/11 A3013 RMK AO2 P0001 T01120112 TSNO $
  • 211035Z AUTO 02007KT 10SM BKN010 OVC014 11/11 A3013 RMK AO2 CIG 009V013 P0005 T01110111 TSNO $
  • 211015Z AUTO 36007KT 340V150 10SM OVC009 11/11 A3014 RMK AO2 CIG 007V012 P0003 T01110111 TSNO $
  • 210955Z AUTO 35006KT 10SM OVC006 11/11 A3013 RMK AO2 CIG 005V010 T01110111 TSNO $
  • 210915Z AUTO 36018G26KT 3SM -RA BR OVC004 11/11 A3007 RMK AO2 PK WND 35026/0913 RAB0854 P0003 T01130113 TSNO $

TAF N/A
KZHU FIR / North America



MET'MAP, your aeronautical weather chart ! - Copyright ORBIFLY December 2007 - Disclaimer

ORBIFLY MET'MAP TEAM :

Programming & Development : Alexandra Zaïnal
Original concept : Baudouin d'Aumeries
Technical & hardware support : Manuel Goepfert
Assistance : Marc-Olivier Méhu




SOURCES & CREDITS :

   NOAA       Earth
Advisory